createdAt,value
2023-05-10T15:45:32.430Z,67.10
2023-05-10T15:46:34.180Z,67.04
2023-05-10T15:47:36.027Z,66.68
2023-05-10T15:48:37.763Z,67.30
2023-05-10T15:49:39.513Z,67.18
2023-05-10T15:50:41.279Z,67.32
2023-05-10T15:51:43.066Z,67.27
2023-05-10T15:52:44.819Z,67.21
2023-05-10T15:54:05.322Z,67.67
2023-05-10T15:55:09.562Z,67.88
2023-05-10T15:56:11.615Z,68.00
2023-05-10T15:57:13.344Z,68.25
2023-05-10T15:58:15.144Z,68.01
2023-05-10T15:59:16.875Z,68.39
2023-05-10T16:00:18.865Z,68.09
2023-05-10T16:01:20.928Z,68.51
2023-05-10T16:02:22.897Z,68.18
2023-05-10T16:03:24.806Z,68.28
2023-05-10T16:04:26.671Z,68.01
2023-05-10T16:05:28.631Z,67.86
2023-05-10T16:06:30.343Z,67.20
2023-05-10T16:07:32.166Z,67.05
2023-05-10T16:08:33.900Z,68.00
2023-05-10T16:09:35.638Z,67.95
2023-05-10T16:10:37.454Z,68.30
2023-05-10T16:11:39.361Z,68.04
2023-05-10T16:12:41.363Z,68.18
2023-05-10T16:13:43.186Z,67.60
2023-05-10T16:14:44.936Z,67.34
2023-05-10T16:15:46.712Z,67.48
2023-05-10T16:16:48.877Z,67.44
2023-05-10T16:17:51.111Z,67.40
2023-05-10T16:18:53.172Z,67.90
2023-05-10T16:19:54.987Z,67.38
2023-05-10T16:20:56.945Z,67.17
2023-05-10T16:21:58.816Z,67.63
2023-05-10T16:23:05.345Z,67.50
2023-05-10T16:24:07.290Z,67.59
2023-05-10T16:25:11.019Z,67.52
2023-05-10T16:26:14.483Z,67.70
2023-05-10T16:27:16.176Z,67.66
2023-05-10T16:28:18.896Z,67.61
2023-05-10T16:29:20.771Z,67.49
2023-05-10T16:30:23.721Z,67.24
2023-05-10T16:31:26.036Z,67.19
2023-05-10T16:32:28.135Z,67.03
2023-05-10T16:33:30.038Z,67.15
2023-05-10T16:34:31.773Z,67.27
2023-05-10T16:35:33.595Z,67.51
2023-05-10T16:36:35.352Z,67.61
2023-05-10T16:37:37.152Z,67.64
2023-05-10T16:38:39.167Z,67.73
2023-05-10T16:39:40.911Z,67.81
2023-05-10T16:40:42.696Z,67.75
2023-05-10T16:41:44.424Z,67.84
2023-05-10T16:42:46.207Z,67.96
2023-05-10T16:43:47.979Z,68.06
2023-05-10T16:44:49.911Z,68.01
2023-05-10T16:45:51.639Z,68.07
2023-05-10T16:46:53.490Z,67.96
2023-05-10T16:47:55.569Z,68.14
2023-05-10T16:48:57.455Z,68.02
2023-05-10T16:49:59.376Z,68.15
2023-05-10T16:51:03.041Z,68.15
2023-05-10T16:52:04.813Z,67.95
2023-05-10T16:53:06.809Z,68.19
2023-05-10T16:54:08.594Z,68.12
2023-05-10T16:55:10.305Z,68.12
2023-05-10T16:56:12.145Z,68.25
2023-05-10T16:57:13.868Z,68.37
2023-05-10T16:58:16.000Z,68.03
2023-05-10T16:59:18.147Z,67.95
2023-05-10T17:00:20.351Z,68.03
2023-05-10T17:01:23.262Z,67.87
2023-05-10T17:02:27.154Z,67.61
2023-05-10T17:03:29.213Z,67.46
2023-05-10T17:04:31.156Z,67.69
2023-05-10T17:05:33.114Z,67.80
2023-05-10T17:06:36.088Z,67.90
2023-05-10T17:07:37.837Z,68.05
2023-05-10T17:08:39.675Z,67.16
2023-05-10T17:09:43.049Z,66.94
2023-05-10T17:10:44.806Z,67.29
2023-05-10T17:11:46.529Z,67.23
2023-05-10T17:12:48.353Z,67.79
2023-05-10T17:13:50.108Z,67.93
2023-05-10T17:14:51.898Z,67.70
2023-05-10T17:15:53.738Z,67.76
2023-05-10T17:16:55.673Z,67.80
2023-05-10T17:17:57.482Z,68.08
2023-05-10T17:18:59.297Z,67.89
2023-05-10T17:20:01.436Z,67.90
2023-05-10T17:21:03.265Z,68.17
2023-05-10T17:22:05.351Z,68.16
2023-05-10T17:23:07.110Z,67.69
2023-05-10T17:24:09.161Z,67.87
2023-05-10T17:25:11.191Z,68.05
2023-05-10T17:26:12.942Z,68.17
2023-05-10T17:27:14.983Z,68.16
2023-05-10T17:28:16.958Z,68.05
2023-05-10T17:29:18.857Z,68.26
2023-05-10T17:30:20.824Z,68.09
2023-05-10T17:31:22.759Z,68.54
2023-05-10T17:32:25.277Z,68.27
2023-05-10T17:33:26.991Z,68.22
2023-05-10T17:34:28.893Z,67.71
2023-05-10T17:35:30.694Z,67.85
2023-05-10T17:36:32.397Z,68.35
2023-05-10T17:37:34.554Z,68.49
2023-05-10T17:38:36.490Z,68.38
2023-05-10T17:39:39.981Z,68.46
2023-05-10T17:40:42.033Z,68.14
2023-05-10T17:41:43.856Z,68.64
2023-05-10T17:42:45.613Z,68.87
2023-05-10T17:43:47.365Z,68.54
2023-05-10T17:44:49.046Z,68.74
2023-05-10T17:45:50.881Z,68.42
2023-05-10T17:46:52.619Z,68.38
2023-05-10T17:47:54.546Z,68.64
2023-05-10T17:48:56.378Z,68.43
2023-05-10T17:49:58.144Z,68.57
2023-05-10T17:50:59.934Z,68.72
2023-05-10T17:52:01.651Z,68.39
2023-05-10T17:53:03.434Z,68.27
2023-05-10T17:54:05.193Z,68.63
2023-05-10T17:55:07.577Z,69.17
2023-05-10T17:56:09.420Z,69.32
2023-05-10T17:57:11.507Z,68.50
2023-05-10T17:58:13.888Z,69.14
2023-05-10T17:59:16.058Z,68.31
2023-05-10T18:00:17.928Z,68.46
2023-05-10T18:01:20.252Z,68.46
2023-05-10T18:02:22.011Z,68.86
2023-05-10T18:03:24.534Z,68.93
2023-05-10T18:04:26.569Z,68.87
2023-05-10T18:05:28.518Z,68.87
2023-05-10T18:06:30.379Z,68.53
2023-05-10T18:07:32.096Z,69.06
2023-05-10T18:08:33.872Z,69.48
2023-05-10T18:09:35.972Z,69.12
2023-05-10T18:10:39.963Z,69.08
2023-05-10T18:11:43.043Z,68.97
2023-05-10T18:12:44.917Z,69.55
2023-05-10T18:13:46.663Z,69.40
2023-05-10T18:14:48.521Z,69.71
2023-05-10T18:15:50.190Z,69.51
2023-05-10T18:16:52.107Z,69.66
2023-05-10T18:17:54.701Z,70.01
2023-05-10T18:18:58.433Z,69.75
2023-05-10T18:20:00.558Z,69.80
2023-05-10T18:21:02.429Z,69.91
2023-05-10T18:22:04.288Z,70.20
2023-05-10T18:23:06.060Z,70.08
2023-05-10T18:24:08.249Z,69.93
2023-05-10T18:25:10.606Z,70.20
2023-05-10T18:26:12.353Z,70.19
2023-05-10T18:27:14.056Z,70.24
2023-05-10T18:28:15.767Z,70.67
2023-05-10T18:29:17.738Z,70.15
2023-05-10T18:30:19.509Z,70.53
2023-05-10T18:31:21.842Z,71.31
2023-05-10T18:32:24.385Z,70.64
2023-05-10T18:33:26.323Z,70.86
2023-05-10T18:34:28.231Z,70.79
2023-05-10T18:35:30.089Z,70.89
2023-05-10T18:36:32.755Z,70.83
2023-05-10T18:37:38.721Z,71.26
2023-05-10T18:38:42.803Z,71.34
2023-05-10T18:39:46.335Z,71.07
2023-05-10T18:40:48.596Z,70.92
2023-05-10T18:41:52.900Z,71.04
2023-05-10T18:42:57.321Z,71.16
2023-05-10T18:44:02.170Z,71.61
2023-05-10T18:45:04.300Z,71.60
2023-05-10T18:46:06.177Z,71.58
2023-05-10T18:47:08.523Z,71.46
2023-05-10T18:48:10.801Z,71.52
2023-05-10T18:49:12.558Z,71.54
2023-05-10T18:50:14.459Z,71.53
2023-05-10T18:51:16.111Z,72.31
2023-05-10T18:52:17.863Z,71.89
2023-05-10T18:53:19.641Z,71.93
2023-05-10T18:54:21.351Z,71.88
2023-05-10T18:55:24.738Z,72.01
2023-05-10T18:56:26.501Z,72.03
2023-05-10T18:57:28.202Z,72.15
2023-05-10T18:58:30.094Z,71.95
2023-05-10T18:59:31.916Z,72.16
2023-05-10T19:00:33.630Z,72.39
2023-05-10T19:01:35.358Z,72.25
2023-05-10T19:02:40.653Z,72.37
2023-05-10T19:03:42.492Z,72.39
2023-05-10T19:04:44.997Z,72.73
2023-05-10T19:05:47.428Z,72.36
2023-05-10T19:06:49.260Z,72.34
2023-05-10T19:07:51.024Z,72.80
2023-05-10T19:08:53.102Z,72.94
2023-05-10T19:09:54.909Z,73.10
2023-05-10T19:10:56.565Z,72.78
2023-05-10T19:11:58.419Z,72.82
2023-05-10T19:13:00.164Z,72.17
2023-05-10T19:14:02.455Z,73.00
2023-05-10T19:15:04.678Z,72.93
2023-05-10T19:16:12.975Z,72.73
2023-05-10T19:17:15.256Z,72.54
2023-05-10T19:18:17.315Z,73.51
2023-05-10T19:19:20.637Z,73.98
2023-05-10T19:20:22.663Z,73.83
2023-05-10T19:21:25.961Z,73.42
2023-05-10T19:22:43.609Z,73.16
2023-05-10T19:23:50.954Z,73.01
2023-05-10T19:24:52.677Z,72.99
2023-05-10T19:25:54.499Z,73.41
2023-05-10T19:26:56.193Z,73.41
2023-05-10T19:27:58.277Z,73.22
2023-05-10T19:29:02.071Z,73.33
2023-05-10T19:30:04.497Z,73.39
2023-05-10T19:31:07.813Z,73.14
2023-05-10T19:32:09.944Z,73.44
2023-05-10T19:33:12.223Z,73.35
2023-05-10T19:34:14.439Z,73.13
2023-05-10T19:35:17.195Z,73.53
2023-05-10T19:36:19.377Z,73.39
2023-05-10T19:37:21.295Z,73.51
2023-05-10T19:38:24.204Z,73.21
2023-05-10T19:39:26.289Z,73.12
2023-05-10T19:40:28.013Z,73.37
2023-05-10T19:41:29.784Z,73.35
2023-05-10T19:42:31.639Z,73.13
2023-05-10T19:43:34.445Z,73.15
2023-05-10T19:44:36.750Z,73.07
2023-05-10T19:45:38.942Z,73.04
2023-05-10T19:46:40.746Z,72.89
2023-05-10T19:47:42.807Z,72.96
2023-05-10T19:48:46.740Z,73.17
2023-05-10T19:49:48.855Z,73.16
2023-05-10T19:50:51.986Z,73.19
2023-05-10T19:51:56.958Z,72.94
2023-05-10T19:53:02.027Z,73.02
2023-05-10T19:54:07.462Z,73.23
2023-05-10T19:55:15.435Z,73.27
2023-05-10T19:56:19.869Z,72.94
2023-05-10T19:57:24.558Z,73.22
2023-05-10T19:58:28.799Z,73.10
2023-05-10T19:59:32.173Z,73.62
2023-05-10T20:00:37.928Z,73.87
2023-05-10T20:01:42.416Z,73.92
2023-05-10T20:02:46.868Z,73.32
2023-05-10T20:03:51.796Z,72.95
2023-05-10T20:05:00.127Z,73.06
2023-05-10T20:06:05.376Z,73.14
2023-05-10T20:07:10.398Z,72.92
2023-05-10T20:08:14.525Z,72.73
2023-05-10T20:09:18.294Z,72.79
2023-05-10T20:10:25.250Z,72.47
2023-05-10T20:11:31.473Z,73.05
2023-05-10T20:12:39.354Z,73.15
2023-05-10T20:13:42.728Z,73.04
2023-05-10T20:14:44.663Z,72.95
2023-05-10T20:15:46.860Z,73.09
2023-05-10T20:16:48.633Z,73.67
2023-05-10T20:17:53.237Z,73.58
2023-05-10T20:18:55.102Z,73.48
2023-05-10T20:19:56.770Z,73.28
2023-05-10T20:21:00.275Z,73.08
2023-05-10T20:22:02.013Z,73.22
2023-05-10T20:23:03.887Z,73.43
2023-05-10T20:24:06.697Z,72.98
2023-05-10T20:25:09.010Z,73.15
2023-05-10T20:26:10.732Z,73.18
2023-05-10T20:27:12.385Z,72.89
2023-05-10T20:28:14.230Z,72.94
2023-05-10T20:29:16.402Z,73.03
2023-05-10T20:30:18.418Z,72.85
2023-05-10T20:31:20.738Z,73.01
2023-05-10T20:32:22.502Z,72.86
2023-05-10T20:33:24.957Z,73.15
2023-05-10T20:34:26.794Z,72.85
2023-05-10T20:35:28.533Z,73.09
2023-05-10T20:36:30.267Z,72.98
2023-05-10T20:37:32.002Z,72.83
2023-05-10T20:38:33.845Z,72.86
2023-05-10T20:39:35.722Z,72.86
2023-05-10T20:40:37.492Z,73.16
2023-05-10T20:41:39.220Z,73.21
2023-05-10T20:42:40.960Z,72.79
2023-05-10T20:43:42.726Z,72.91
2023-05-10T20:44:44.493Z,72.92
2023-05-10T20:45:46.385Z,72.83
2023-05-10T20:46:48.199Z,72.94
2023-05-10T20:47:49.968Z,72.80
2023-05-10T20:48:51.727Z,72.96
2023-05-10T20:49:53.475Z,72.93
2023-05-10T20:50:55.226Z,73.22
2023-05-10T20:51:57.251Z,72.91
2023-05-10T20:52:58.942Z,73.18
2023-05-10T20:54:00.717Z,73.42
2023-05-10T20:55:02.456Z,73.41
2023-05-10T20:56:04.229Z,73.66
2023-05-10T20:57:06.042Z,73.33
2023-05-10T20:58:07.820Z,73.56
2023-05-10T20:59:11.132Z,73.63
2023-05-10T21:00:14.322Z,73.67
2023-05-10T21:01:16.082Z,74.02
2023-05-10T21:02:17.925Z,74.07
2023-05-10T21:03:19.669Z,73.96
2023-05-10T21:04:21.500Z,74.25
2023-05-10T21:05:23.487Z,74.07
2023-05-10T21:06:25.296Z,73.67
2023-05-10T21:07:27.123Z,74.06
2023-05-10T21:08:28.926Z,74.15
2023-05-10T21:09:30.725Z,74.57
2023-05-10T21:10:32.460Z,74.23
2023-05-10T21:11:36.070Z,74.38
2023-05-10T21:12:37.945Z,74.37
2023-05-10T21:13:39.733Z,74.56
2023-05-10T21:14:41.486Z,74.39
2023-05-10T21:15:43.231Z,74.41
2023-05-10T21:16:45.085Z,74.82
2023-05-10T21:17:46.824Z,75.10
2023-05-10T21:18:48.514Z,74.86
2023-05-10T21:19:50.270Z,74.58
2023-05-10T21:20:52.293Z,74.88
2023-05-10T21:21:54.017Z,74.80
2023-05-10T21:22:55.719Z,75.49
2023-05-10T21:23:57.476Z,75.00
2023-05-10T21:24:59.283Z,74.91
2023-05-10T21:26:03.180Z,75.06
2023-05-10T21:27:04.970Z,75.07
2023-05-10T21:28:06.750Z,74.99
2023-05-10T21:29:08.626Z,75.07
2023-05-10T21:30:10.524Z,75.13
2023-05-10T21:31:12.414Z,75.52
2023-05-10T21:32:14.228Z,74.89
2023-05-10T21:33:15.883Z,75.02
2023-05-10T21:34:17.658Z,75.40
2023-05-10T21:35:19.290Z,75.15
2023-05-10T21:36:21.075Z,75.02
2023-05-10T21:37:22.835Z,75.32
2023-05-10T21:38:24.608Z,75.00
2023-05-10T21:39:26.321Z,75.13
2023-05-10T21:40:28.977Z,75.24
2023-05-10T21:41:30.735Z,75.24
2023-05-10T21:42:32.466Z,75.36
2023-05-10T21:43:34.271Z,75.72
2023-05-10T21:44:35.973Z,75.35
2023-05-10T21:45:38.117Z,75.70
2023-05-10T21:46:39.924Z,75.74
2023-05-10T21:47:41.638Z,75.58
2023-05-10T21:48:43.352Z,75.83
2023-05-10T21:49:45.171Z,75.64
2023-05-10T21:50:46.937Z,75.68
2023-05-10T21:51:48.716Z,75.73
2023-05-10T21:52:50.422Z,75.82
2023-05-10T21:53:52.152Z,75.70
2023-05-10T21:54:53.893Z,75.90
2023-05-10T21:55:56.343Z,75.96
2023-05-10T21:56:58.628Z,76.19
2023-05-10T21:58:00.279Z,75.67
2023-05-10T21:59:02.033Z,75.69
2023-05-10T22:00:04.003Z,75.71
2023-05-10T22:01:05.775Z,76.16
2023-05-10T22:02:07.672Z,76.08
2023-05-10T22:03:09.510Z,76.21
2023-05-10T22:04:11.479Z,76.35
2023-05-10T22:05:13.409Z,76.57
2023-05-10T22:06:15.235Z,76.27
2023-05-10T22:07:17.104Z,76.24
2023-05-10T22:08:19.077Z,76.38
2023-05-10T22:09:20.846Z,76.48
2023-05-10T22:10:22.682Z,76.44
2023-05-10T22:11:24.382Z,76.72
2023-05-10T22:12:26.821Z,76.55
2023-05-10T22:13:28.834Z,76.63
2023-05-10T22:14:30.729Z,76.66
2023-05-10T22:15:33.637Z,77.07
2023-05-10T22:16:37.353Z,76.77
2023-05-10T22:17:40.145Z,76.54
2023-05-10T22:18:43.217Z,76.91
2023-05-10T22:19:45.019Z,76.40
2023-05-10T22:20:46.831Z,76.75
2023-05-10T22:21:48.528Z,76.85
2023-05-10T22:22:50.339Z,76.90
2023-05-10T22:23:52.018Z,77.05
2023-05-10T22:24:53.714Z,76.88
2023-05-10T22:26:00.232Z,77.05
2023-05-10T22:27:02.661Z,77.01
2023-05-10T22:28:04.726Z,77.42
2023-05-10T22:29:06.611Z,77.63
2023-05-10T22:30:09.110Z,77.35
2023-05-10T22:31:11.473Z,77.58
2023-05-10T22:32:13.344Z,77.43
2023-05-10T22:33:15.119Z,77.60
2023-05-10T22:34:16.920Z,77.50
2023-05-10T22:35:18.657Z,77.24
2023-05-10T22:36:20.396Z,76.99
2023-05-10T22:37:22.082Z,76.89
2023-05-10T22:38:23.872Z,76.78
2023-05-10T22:39:25.667Z,76.85
2023-05-10T22:40:27.359Z,77.17
2023-05-10T22:41:29.265Z,77.21
2023-05-10T22:42:30.966Z,77.14
2023-05-10T22:43:32.841Z,77.28
2023-05-10T22:44:34.631Z,77.05
2023-05-10T22:45:36.382Z,76.85
2023-05-10T22:46:38.533Z,77.02
2023-05-10T22:47:40.397Z,77.24
2023-05-10T22:48:43.002Z,77.31
2023-05-10T22:49:44.836Z,77.54
2023-05-10T22:50:46.537Z,77.64
2023-05-10T22:51:48.267Z,77.75
2023-05-10T22:52:50.048Z,77.67
2023-05-10T22:53:51.822Z,77.39
2023-05-10T22:54:53.597Z,77.47
2023-05-10T22:55:55.565Z,77.33
2023-05-10T22:56:59.487Z,77.50
2023-05-10T22:58:01.239Z,77.84
2023-05-10T22:59:03.040Z,77.59
2023-05-10T23:00:05.403Z,77.17
2023-05-10T23:01:07.153Z,77.44
2023-05-10T23:02:09.570Z,77.46
2023-05-10T23:03:11.432Z,77.11
2023-05-10T23:04:13.194Z,77.01
2023-05-10T23:05:15.079Z,76.56
2023-05-10T23:06:16.858Z,76.28
2023-05-10T23:07:18.638Z,76.22
2023-05-10T23:08:20.368Z,76.23
2023-05-10T23:09:22.157Z,76.30
2023-05-10T23:10:24.241Z,76.27
2023-05-10T23:11:25.947Z,76.16
2023-05-10T23:12:27.713Z,76.04
2023-05-10T23:13:29.497Z,75.90
2023-05-10T23:14:31.339Z,75.82
2023-05-10T23:15:33.165Z,76.17
2023-05-10T23:16:35.241Z,76.02
2023-05-10T23:17:37.170Z,76.21
2023-05-10T23:18:39.030Z,76.33
2023-05-10T23:19:40.821Z,76.19
2023-05-10T23:20:42.568Z,76.13
2023-05-10T23:21:44.311Z,75.66
2023-05-10T23:22:45.992Z,75.93
2023-05-10T23:23:47.783Z,75.97
2023-05-10T23:24:49.592Z,76.22
2023-05-10T23:25:51.340Z,76.25
2023-05-10T23:26:52.987Z,76.25
2023-05-10T23:27:54.689Z,76.36
2023-05-10T23:28:56.431Z,76.48
2023-05-10T23:29:58.412Z,76.12
2023-05-10T23:31:00.291Z,76.40
2023-05-10T23:32:02.654Z,76.06
2023-05-10T23:33:04.360Z,76.08
2023-05-10T23:34:06.186Z,76.33
2023-05-10T23:35:08.707Z,75.85
2023-05-10T23:36:10.458Z,75.34
2023-05-10T23:37:12.222Z,75.97
2023-05-10T23:38:14.026Z,75.61
2023-05-10T23:39:15.738Z,75.41
2023-05-10T23:40:17.784Z,75.74
2023-05-10T23:41:19.738Z,75.19
2023-05-10T23:42:21.635Z,75.31
2023-05-10T23:43:23.440Z,75.88
2023-05-10T23:44:25.164Z,75.70
2023-05-10T23:45:26.968Z,75.52
2023-05-10T23:46:28.751Z,75.92
2023-05-10T23:47:30.554Z,76.08
2023-05-10T23:48:32.364Z,76.22
2023-05-10T23:49:34.090Z,76.15
2023-05-10T23:50:35.771Z,75.51
2023-05-10T23:54:15.455Z,75.20
2023-05-10T23:55:17.521Z,75.17
2023-05-10T23:56:19.277Z,75.18
2023-05-10T23:57:20.968Z,75.52
2023-05-10T23:58:22.678Z,75.26
2023-05-10T23:59:24.475Z,75.26
